Carlock, IL (61725)

9:09 PM CDT on August 30, 2015 (GMT -0500)
APRSWXNET | | Change Station
CLOSE
Current Station
Personal Weather Station
Location: Danvers, IL
Elevation: 803 ft
Nearby Weather Stations

Elev 803 ft 40.53 °N, 89.17 °W | Updated 23 minutes ago

Clear
Clear
72 °F
Feels Like 72 °F
N
0
Wind Variable Wind from NW
Gusts 1.0 mph

Today
High -- | Low -- °F
--% Chance of Precip.
Yesterday
High -- | Low -- °F
Precip. -- in
6:21 AM 7:32 PM
Full, 97% visible
Pressure 30.03 in
Visibility 9.0 miles
Clouds Clear
Dew Point 69 °F
Humidity 89%
Rainfall in
Snow Depth Not available.
UV 0 out of 12
Pollen 10.30 out of 12
Air Quality Not available.
Flu Activity Not available.
METAR KBMI 310156Z 03006KT 9SM CLR 22/21 A3006 RMK AO2 T02220211 SLP168
Pressure 30.03 in
Visibility 9.0 miles
Clouds Clear
Dew Point 69 °F
Humidity 89%
Rainfall in
Snow Depth Not available.
UV 0 out of 12
Pollen 10.30 out of 12
Air Quality Not available.
Flu Activity Not available.
METAR KBMI 310156Z 03006KT 9SM CLR 22/21 A3006 RMK AO2 T02220211 SLP168

10-Day Weather Forecast

×

Almanac

Astronomy

Aug. 30, 2015 Rise Set
Actual Time
Civil Twilight
Nautical Twilight
Astronomical Twilight
Moon
Length of Visible Light
Length of Day
Tomorrow will be .
, % of the Moon is Illuminated

Today's Extremes

State Highs State Lows

Community

WunderPhotos

Upload Photos

1,851,155 photos uploaded!

WunderBlogs® & News

Nearby

Air Quality

  Air Quality AQ Index Pollutant
Not available.

Snow Depth

Station Depth Elevation

Earthquake Activity

City Distance Mag. Time & Date
Minimum magnitude displayed is 2.5.

Coastal Water Temperatures

Place Temperature

Stations

Nearby Weather Stations

Station Location Temp. Windchill Dew Point Humidity Wind Precip. Elev Updated Type